sensor_id;sensor_type;location;lat;lon;timestamp;pressure;altitude;pressure_sealevel;temperature;humidity
51829;BME280;37881;48.024;8.774;2024-01-30T00:02:25;95244.69;;;-0.52;100.00
51829;BME280;37881;48.024;8.774;2024-01-30T00:04:52;95238.16;;;-0.51;100.00
51829;BME280;37881;48.024;8.774;2024-01-30T00:07:19;95238.94;;;-0.59;100.00
51829;BME280;37881;48.024;8.774;2024-01-30T00:09:47;95234.69;;;-0.92;100.00
51829;BME280;37881;48.024;8.774;2024-01-30T00:12:15;95244.97;;;-0.94;100.00
51829;BME280;37881;48.024;8.774;2024-01-30T00:14:42;95238.81;;;-0.86;100.00
51829;BME280;37881;48.024;8.774;2024-01-30T00:17:12;95231.72;;;-0.82;100.00
51829;BME280;37881;48.024;8.774;2024-01-30T00:19:39;95238.81;;;-0.86;100.00
51829;BME280;37881;48.024;8.774;2024-01-30T00:22:05;95240.59;;;-0.81;100.00
51829;BME280;37881;48.024;8.774;2024-01-30T00:24:33;95236.31;;;-0.82;100.00
51829;BME280;37881;48.024;8.774;2024-01-30T00:27:00;95242.84;;;-0.74;100.00
51829;BME280;37881;48.024;8.774;2024-01-30T00:29:26;95242.69;;;-0.69;100.00
51829;BME280;37881;48.024;8.774;2024-01-30T00:31:57;95238.91;;;-0.68;100.00
51829;BME280;37881;48.024;8.774;2024-01-30T00:34:23;95237.28;;;-0.78;100.00
51829;BME280;37881;48.024;8.774;2024-01-30T00:36:50;95238.69;;;-0.81;100.00
51829;BME280;37881;48.024;8.774;2024-01-30T00:39:17;95240.16;;;-0.74;100.00
51829;BME280;37881;48.024;8.774;2024-01-30T00:41:46;95241.56;;;-0.77;100.00
51829;BME280;37881;48.024;8.774;2024-01-30T00:44:13;95235.00;;;-0.85;100.00
51829;BME280;37881;48.024;8.774;2024-01-30T00:46:39;95237.72;;;-0.85;100.00
51829;BME280;37881;48.024;8.774;2024-01-30T00:49:06;95237.09;;;-0.82;100.00
51829;BME280;37881;48.024;8.774;2024-01-30T00:51:33;95236.81;;;-0.80;100.00
51829;BME280;37881;48.024;8.774;2024-01-30T00:54:00;95239.19;;;-0.78;100.00
51829;BME280;37881;48.024;8.774;2024-01-30T00:56:27;95245.84;;;-0.76;100.00
51829;BME280;37881;48.024;8.774;2024-01-30T00:58:54;95236.97;;;-0.76;100.00
51829;BME280;37881;48.024;8.774;2024-01-30T01:01:20;95241.72;;;-0.73;100.00
51829;BME280;37881;48.024;8.774;2024-01-30T01:03:47;95238.56;;;-0.75;100.00
51829;BME280;37881;48.024;8.774;2024-01-30T01:06:15;95242.03;;;-0.75;100.00
51829;BME280;37881;48.024;8.774;2024-01-30T01:08:42;95233.47;;;-0.77;100.00
51829;BME280;37881;48.024;8.774;2024-01-30T01:11:09;95242.97;;;-0.79;100.00
51829;BME280;37881;48.024;8.774;2024-01-30T01:13:36;95246.91;;;-0.86;100.00
51829;BME280;37881;48.024;8.774;2024-01-30T01:16:03;95241.22;;;-0.84;100.00
51829;BME280;37881;48.024;8.774;2024-01-30T01:18:30;95242.63;;;-0.87;100.00
51829;BME280;37881;48.024;8.774;2024-01-30T01:20:57;95250.56;;;-0.82;100.00
51829;BME280;37881;48.024;8.774;2024-01-30T01:23:24;95253.41;;;-0.87;100.00
51829;BME280;37881;48.024;8.774;2024-01-30T01:25:51;95244.22;;;-0.86;100.00
51829;BME280;37881;48.024;8.774;2024-01-30T01:28:18;95244.53;;;-0.87;100.00
51829;BME280;37881;48.024;8.774;2024-01-30T01:30:45;95252.31;;;-0.86;100.00
51829;BME280;37881;48.024;8.774;2024-01-30T01:33:13;95241.91;;;-1.01;100.00
51829;BME280;37881;48.024;8.774;2024-01-30T01:35:41;95248.03;;;-1.09;100.00
51829;BME280;37881;48.024;8.774;2024-01-30T01:38:08;95239.19;;;-1.10;100.00
51829;BME280;37881;48.024;8.774;2024-01-30T01:40:35;95260.31;;;-1.26;100.00
51829;BME280;37881;48.024;8.774;2024-01-30T01:43:03;95245.00;;;-1.39;100.00
51829;BME280;37881;48.024;8.774;2024-01-30T01:45:31;95249.34;;;-1.29;100.00
51829;BME280;37881;48.024;8.774;2024-01-30T01:47:58;95242.25;;;-1.25;100.00
51829;BME280;37881;48.024;8.774;2024-01-30T01:50:25;95239.94;;;-1.18;100.00
51829;BME280;37881;48.024;8.774;2024-01-30T01:52:53;95237.53;;;-1.19;100.00
51829;BME280;37881;48.024;8.774;2024-01-30T01:55:21;95239.78;;;-1.13;100.00
51829;BME280;37881;48.024;8.774;2024-01-30T01:57:51;95233.16;;;-1.07;100.00
51829;BME280;37881;48.024;8.774;2024-01-30T02:00:19;95236.13;;;-1.17;100.00
51829;BME280;37881;48.024;8.774;2024-01-30T02:02:46;95238.81;;;-1.17;100.00
51829;BME280;37881;48.024;8.774;2024-01-30T02:05:15;95235.47;;;-1.23;100.00
51829;BME280;37881;48.024;8.774;2024-01-30T02:07:42;95235.97;;;-1.21;100.00
51829;BME280;37881;48.024;8.774;2024-01-30T02:10:10;95240.03;;;-1.23;100.00
51829;BME280;37881;48.024;8.774;2024-01-30T02:12:37;95234.97;;;-1.25;100.00
51829;BME280;37881;48.024;8.774;2024-01-30T02:15:04;95241.00;;;-1.19;100.00
51829;BME280;37881;48.024;8.774;2024-01-30T02:17:31;95240.41;;;-1.16;100.00
51829;BME280;37881;48.024;8.774;2024-01-30T02:19:59;95237.09;;;-1.13;100.00
51829;BME280;37881;48.024;8.774;2024-01-30T02:22:26;95234.72;;;-1.14;100.00
51829;BME280;37881;48.024;8.774;2024-01-30T02:24:53;95226.94;;;-1.16;100.00
51829;BME280;37881;48.024;8.774;2024-01-30T02:27:20;95233.56;;;-1.22;100.00
51829;BME280;37881;48.024;8.774;2024-01-30T02:29:47;95233.88;;;-1.24;100.00
51829;BME280;37881;48.024;8.774;2024-01-30T02:32:13;95231.66;;;-1.22;100.00
51829;BME280;37881;48.024;8.774;2024-01-30T02:34:40;95232.63;;;-1.17;100.00
51829;BME280;37881;48.024;8.774;2024-01-30T02:37:07;95227.69;;;-1.24;100.00
51829;BME280;37881;48.024;8.774;2024-01-30T02:39:34;95228.06;;;-1.39;100.00
51829;BME280;37881;48.024;8.774;2024-01-30T02:42:01;95232.66;;;-1.40;100.00
51829;BME280;37881;48.024;8.774;2024-01-30T02:44:27;95231.91;;;-1.32;100.00
51829;BME280;37881;48.024;8.774;2024-01-30T02:46:55;95225.75;;;-1.32;100.00
51829;BME280;37881;48.024;8.774;2024-01-30T02:49:21;95222.41;;;-1.29;100.00
51829;BME280;37881;48.024;8.774;2024-01-30T02:51:49;95224.22;;;-1.25;100.00
51829;BME280;37881;48.024;8.774;2024-01-30T02:54:16;95222.00;;;-1.23;100.00
51829;BME280;37881;48.024;8.774;2024-01-30T02:56:43;95225.78;;;-1.24;100.00
51829;BME280;37881;48.024;8.774;2024-01-30T02:59:09;95213.56;;;-1.30;100.00
51829;BME280;37881;48.024;8.774;2024-01-30T03:01:43;95223.06;;;-1.32;100.00
51829;BME280;37881;48.024;8.774;2024-01-30T03:04:11;95215.84;;;-1.46;100.00
51829;BME280;37881;48.024;8.774;2024-01-30T03:06:38;95218.72;;;-1.42;100.00
51829;BME280;37881;48.024;8.774;2024-01-30T03:09:05;95216.06;;;-1.33;100.00
51829;BME280;37881;48.024;8.774;2024-01-30T03:11:31;95211.16;;;-1.31;100.00
51829;BME280;37881;48.024;8.774;2024-01-30T03:13:58;95220.63;;;-1.43;100.00
51829;BME280;37881;48.024;8.774;2024-01-30T03:16:25;95210.81;;;-1.38;100.00
51829;BME280;37881;48.024;8.774;2024-01-30T03:18:52;95219.06;;;-1.35;100.00
51829;BME280;37881;48.024;8.774;2024-01-30T03:21:19;95211.59;;;-1.38;100.00
51829;BME280;37881;48.024;8.774;2024-01-30T03:23:45;95216.22;;;-1.38;100.00
51829;BME280;37881;48.024;8.774;2024-01-30T03:26:12;95213.81;;;-1.40;100.00
51829;BME280;37881;48.024;8.774;2024-01-30T03:28:39;95211.91;;;-1.39;100.00
51829;BME280;37881;48.024;8.774;2024-01-30T03:31:06;95217.44;;;-1.45;100.00
51829;BME280;37881;48.024;8.774;2024-01-30T03:33:33;95218.34;;;-1.49;100.00
51829;BME280;37881;48.024;8.774;2024-01-30T03:36:04;95211.47;;;-1.55;100.00
51829;BME280;37881;48.024;8.774;2024-01-30T03:38:31;95218.66;;;-1.51;100.00
51829;BME280;37881;48.024;8.774;2024-01-30T03:40:59;95210.09;;;-1.53;100.00
51829;BME280;37881;48.024;8.774;2024-01-30T03:43:26;95211.81;;;-1.57;100.00
51829;BME280;37881;48.024;8.774;2024-01-30T03:45:53;95205.81;;;-1.54;100.00
51829;BME280;37881;48.024;8.774;2024-01-30T03:48:21;95207.31;;;-1.62;100.00
51829;BME280;37881;48.024;8.774;2024-01-30T03:50:47;95211.28;;;-1.59;100.00
51829;BME280;37881;48.024;8.774;2024-01-30T03:53:14;95208.31;;;-1.57;100.00
51829;BME280;37881;48.024;8.774;2024-01-30T03:55:41;95209.75;;;-1.51;100.00
51829;BME280;37881;48.024;8.774;2024-01-30T03:58:08;95220.91;;;-1.67;100.00
51829;BME280;37881;48.024;8.774;2024-01-30T04:00:35;95220.75;;;-2.07;100.00
51829;BME280;37881;48.024;8.774;2024-01-30T04:03:02;95226.13;;;-2.07;100.00
51829;BME280;37881;48.024;8.774;2024-01-30T04:05:29;95219.91;;;-1.93;100.00
51829;BME280;37881;48.024;8.774;2024-01-30T04:07:56;95223.16;;;-1.83;100.00
51829;BME280;37881;48.024;8.774;2024-01-30T04:10:23;95217.00;;;-1.83;100.00
51829;BME280;37881;48.024;8.774;2024-01-30T04:12:51;95216.09;;;-1.78;100.00
51829;BME280;37881;48.024;8.774;2024-01-30T04:15:18;95213.88;;;-1.76;100.00
51829;BME280;37881;48.024;8.774;2024-01-30T04:17:45;95211.38;;;-1.73;100.00
51829;BME280;37881;48.024;8.774;2024-01-30T04:20:15;95212.66;;;-1.70;100.00
51829;BME280;37881;48.024;8.774;2024-01-30T04:22:44;95221.09;;;-1.63;100.00
51829;BME280;37881;48.024;8.774;2024-01-30T04:25:12;95224.59;;;-1.63;100.00
51829;BME280;37881;48.024;8.774;2024-01-30T04:27:40;95215.59;;;-1.58;100.00
51829;BME280;37881;48.024;8.774;2024-01-30T04:30:07;95214.31;;;-1.61;100.00
51829;BME280;37881;48.024;8.774;2024-01-30T04:32:34;95208.13;;;-1.61;100.00
51829;BME280;37881;48.024;8.774;2024-01-30T04:35:02;95214.19;;;-1.78;100.00
51829;BME280;37881;48.024;8.774;2024-01-30T04:37:33;95215.47;;;-1.75;100.00
51829;BME280;37881;48.024;8.774;2024-01-30T04:40:00;95213.69;;;-1.80;100.00
51829;BME280;37881;48.024;8.774;2024-01-30T04:42:26;95217.66;;;-1.77;100.00
51829;BME280;37881;48.024;8.774;2024-01-30T04:44:53;95223.84;;;-1.77;100.00
51829;BME280;37881;48.024;8.774;2024-01-30T04:47:20;95220.09;;;-1.90;100.00
51829;BME280;37881;48.024;8.774;2024-01-30T04:49:47;95222.78;;;-1.90;100.00
51829;BME280;37881;48.024;8.774;2024-01-30T04:52:14;95229.16;;;-1.86;100.00
51829;BME280;37881;48.024;8.774;2024-01-30T04:54:41;95225.56;;;-1.81;100.00
51829;BME280;37881;48.024;8.774;2024-01-30T04:57:07;95224.56;;;-1.85;100.00
51829;BME280;37881;48.024;8.774;2024-01-30T04:59:36;95222.06;;;-1.82;100.00
51829;BME280;37881;48.024;8.774;2024-01-30T05:02:03;95211.00;;;-1.80;100.00
51829;BME280;37881;48.024;8.774;2024-01-30T05:04:30;95222.00;;;-1.90;100.00
51829;BME280;37881;48.024;8.774;2024-01-30T05:06:57;95227.88;;;-1.88;100.00
51829;BME280;37881;48.024;8.774;2024-01-30T05:09:23;95235.06;;;-1.97;100.00
51829;BME280;37881;48.024;8.774;2024-01-30T05:11:50;95231.56;;;-1.98;100.00
51829;BME280;37881;48.024;8.774;2024-01-30T05:14:17;95236.53;;;-1.91;100.00
51829;BME280;37881;48.024;8.774;2024-01-30T05:16:44;95240.28;;;-2.01;100.00
51829;BME280;37881;48.024;8.774;2024-01-30T05:19:14;95232.78;;;-2.04;100.00
51829;BME280;37881;48.024;8.774;2024-01-30T05:21:41;95234.25;;;-1.98;100.00
51829;BME280;37881;48.024;8.774;2024-01-30T05:24:08;95230.09;;;-2.04;100.00
51829;BME280;37881;48.024;8.774;2024-01-30T05:26:36;95234.19;;;-2.07;100.00
51829;BME280;37881;48.024;8.774;2024-01-30T05:29:04;95234.06;;;-2.02;100.00
51829;BME280;37881;48.024;8.774;2024-01-30T05:31:31;95235.69;;;-2.01;100.00
51829;BME280;37881;48.024;8.774;2024-01-30T05:33:57;95229.31;;;-2.05;100.00
51829;BME280;37881;48.024;8.774;2024-01-30T05:36:24;95241.59;;;-2.26;100.00
51829;BME280;37881;48.024;8.774;2024-01-30T05:38:51;95243.88;;;-2.19;100.00
51829;BME280;37881;48.024;8.774;2024-01-30T05:41:18;95245.97;;;-2.16;100.00
51829;BME280;37881;48.024;8.774;2024-01-30T05:43:45;95245.75;;;-2.06;100.00
51829;BME280;37881;48.024;8.774;2024-01-30T05:46:12;95246.94;;;-1.98;100.00
51829;BME280;37881;48.024;8.774;2024-01-30T05:48:39;95249.41;;;-2.02;100.00
51829;BME280;37881;48.024;8.774;2024-01-30T05:51:07;95251.19;;;-1.97;100.00
51829;BME280;37881;48.024;8.774;2024-01-30T05:53:34;95243.56;;;-2.04;100.00
51829;BME280;37881;48.024;8.774;2024-01-30T05:56:02;95248.13;;;-2.05;100.00
51829;BME280;37881;48.024;8.774;2024-01-30T05:58:29;95247.16;;;-2.09;100.00
51829;BME280;37881;48.024;8.774;2024-01-30T06:00:57;95249.66;;;-2.12;100.00
51829;BME280;37881;48.024;8.774;2024-01-30T06:03:25;95247.94;;;-2.08;100.00
51829;BME280;37881;48.024;8.774;2024-01-30T06:05:52;95243.84;;;-2.06;100.00
51829;BME280;37881;48.024;8.774;2024-01-30T06:08:18;95247.53;;;-2.02;100.00
51829;BME280;37881;48.024;8.774;2024-01-30T06:10:45;95246.63;;;-1.97;100.00
51829;BME280;37881;48.024;8.774;2024-01-30T06:13:12;95248.50;;;-1.97;100.00
51829;BME280;37881;48.024;8.774;2024-01-30T06:15:39;95256.09;;;-1.99;100.00
51829;BME280;37881;48.024;8.774;2024-01-30T06:18:06;95256.03;;;-2.22;100.00
51829;BME280;37881;48.024;8.774;2024-01-30T06:20:33;95256.56;;;-1.97;100.00
51829;BME280;37881;48.024;8.774;2024-01-30T06:23:00;95256.19;;;-1.91;100.00
51829;BME280;37881;48.024;8.774;2024-01-30T06:25:27;95256.69;;;-1.89;100.00
51829;BME280;37881;48.024;8.774;2024-01-30T06:27:54;95259.47;;;-1.94;100.00
51829;BME280;37881;48.024;8.774;2024-01-30T06:30:21;95254.28;;;-1.90;100.00
51829;BME280;37881;48.024;8.774;2024-01-30T06:32:48;95262.44;;;-1.95;100.00
51829;BME280;37881;48.024;8.774;2024-01-30T06:35:15;95266.78;;;-2.22;100.00
51829;BME280;37881;48.024;8.774;2024-01-30T06:37:41;95263.78;;;-2.07;100.00
51829;BME280;37881;48.024;8.774;2024-01-30T06:40:08;95260.69;;;-2.00;100.00
51829;BME280;37881;48.024;8.774;2024-01-30T06:42:35;95261.38;;;-1.94;100.00
51829;BME280;37881;48.024;8.774;2024-01-30T06:45:02;95255.84;;;-1.89;100.00
51829;BME280;37881;48.024;8.774;2024-01-30T06:47:29;95255.69;;;-1.93;100.00
51829;BME280;37881;48.024;8.774;2024-01-30T06:49:57;95256.09;;;-1.99;100.00
51829;BME280;37881;48.024;8.774;2024-01-30T06:52:24;95258.75;;;-1.86;100.00
51829;BME280;37881;48.024;8.774;2024-01-30T06:54:51;95257.03;;;-1.82;100.00
51829;BME280;37881;48.024;8.774;2024-01-30T06:57:18;95257.19;;;-2.01;100.00
51829;BME280;37881;48.024;8.774;2024-01-30T06:59:44;95256.53;;;-1.84;100.00
51829;BME280;37881;48.024;8.774;2024-01-30T07:02:11;95264.72;;;-1.75;100.00
51829;BME280;37881;48.024;8.774;2024-01-30T07:04:38;95262.91;;;-1.79;100.00
51829;BME280;37881;48.024;8.774;2024-01-30T07:07:12;95263.31;;;-1.72;100.00
51829;BME280;37881;48.024;8.774;2024-01-30T07:09:40;95262.28;;;-1.63;100.00
51829;BME280;37881;48.024;8.774;2024-01-30T07:12:07;95258.97;;;-1.59;100.00
51829;BME280;37881;48.024;8.774;2024-01-30T07:14:34;95268.88;;;-1.46;100.00
51829;BME280;37881;48.024;8.774;2024-01-30T07:17:01;95267.53;;;-1.57;100.00
51829;BME280;37881;48.024;8.774;2024-01-30T07:19:28;95263.00;;;-1.48;100.00
51829;BME280;37881;48.024;8.774;2024-01-30T07:21:55;95267.53;;;-1.35;100.00
51829;BME280;37881;48.024;8.774;2024-01-30T07:24:22;95268.34;;;-1.34;100.00
51829;BME280;37881;48.024;8.774;2024-01-30T07:26:48;95262.22;;;-1.26;100.00
51829;BME280;37881;48.024;8.774;2024-01-30T07:29:15;95262.78;;;-1.07;100.00
51829;BME280;37881;48.024;8.774;2024-01-30T07:31:42;95258.28;;;-0.89;100.00
51829;BME280;37881;48.024;8.774;2024-01-30T07:34:09;95268.66;;;-0.82;100.00
51829;BME280;37881;48.024;8.774;2024-01-30T07:36:36;95266.00;;;-1.05;100.00
51829;BME280;37881;48.024;8.774;2024-01-30T07:39:05;95263.94;;;-0.76;100.00
51829;BME280;37881;48.024;8.774;2024-01-30T07:41:32;95271.47;;;-0.56;100.00
51829;BME280;37881;48.024;8.774;2024-01-30T07:43:59;95269.94;;;-0.39;100.00
51829;BME280;37881;48.024;8.774;2024-01-30T07:46:25;95261.38;;;-0.42;100.00
51829;BME280;37881;48.024;8.774;2024-01-30T07:48:52;95276.63;;;-0.28;100.00
51829;BME280;37881;48.024;8.774;2024-01-30T07:51:21;95276.78;;;-0.25;100.00
51829;BME280;37881;48.024;8.774;2024-01-30T07:53:48;95274.81;;;-0.02;100.00
51829;BME280;37881;48.024;8.774;2024-01-30T07:56:15;95270.34;;;-0.06;100.00
51829;BME280;37881;48.024;8.774;2024-01-30T07:58:42;95264.69;;;0.30;100.00
51829;BME280;37881;48.024;8.774;2024-01-30T08:01:09;95266.28;;;0.49;100.00
51829;BME280;37881;48.024;8.774;2024-01-30T08:03:36;95266.28;;;0.49;100.00
51829;BME280;37881;48.024;8.774;2024-01-30T08:06:03;95268.00;;;0.79;100.00
51829;BME280;37881;48.024;8.774;2024-01-30T08:08:30;95267.66;;;0.98;100.00
51829;BME280;37881;48.024;8.774;2024-01-30T08:10:57;95263.22;;;0.94;100.00
51829;BME280;37881;48.024;8.774;2024-01-30T08:13:24;95264.88;;;1.25;100.00
51829;BME280;37881;48.024;8.774;2024-01-30T08:15:51;95266.09;;;1.45;100.00
51829;BME280;37881;48.024;8.774;2024-01-30T08:18:18;95263.50;;;1.57;100.00
51829;BME280;37881;48.024;8.774;2024-01-30T08:20:45;95260.41;;;2.06;100.00
51829;BME280;37881;48.024;8.774;2024-01-30T08:23:12;95269.41;;;3.15;100.00
51829;BME280;37881;48.024;8.774;2024-01-30T08:25:39;95269.22;;;4.03;100.00
51829;BME280;37881;48.024;8.774;2024-01-30T08:28:05;95261.78;;;5.09;100.00
51829;BME280;37881;48.024;8.774;2024-01-30T08:30:33;95259.03;;;6.68;100.00
51829;BME280;37881;48.024;8.774;2024-01-30T08:33:00;95257.88;;;7.47;92.33
51829;BME280;37881;48.024;8.774;2024-01-30T08:35:27;95256.53;;;9.54;85.59
51829;BME280;37881;48.024;8.774;2024-01-30T08:37:54;95261.84;;;10.22;72.92
51829;BME280;37881;48.024;8.774;2024-01-30T08:40:21;95259.66;;;10.42;76.46
51829;BME280;37881;48.024;8.774;2024-01-30T08:42:48;95255.53;;;11.75;66.18
51829;BME280;37881;48.024;8.774;2024-01-30T08:45:14;95254.38;;;12.80;58.15
51829;BME280;37881;48.024;8.774;2024-01-30T08:47:41;95255.81;;;13.10;56.47
51829;BME280;37881;48.024;8.774;2024-01-30T08:50:08;95259.47;;;12.71;55.22
51829;BME280;37881;48.024;8.774;2024-01-30T08:52:35;95260.22;;;11.71;56.18
51829;BME280;37881;48.024;8.774;2024-01-30T08:55:02;95261.09;;;12.11;55.03
51829;BME280;37881;48.024;8.774;2024-01-30T08:57:30;95266.38;;;11.21;58.28
51829;BME280;37881;48.024;8.774;2024-01-30T08:59:57;95263.00;;;11.67;56.17
51829;BME280;37881;48.024;8.774;2024-01-30T09:02:23;95260.47;;;11.19;60.61
51829;BME280;37881;48.024;8.774;2024-01-30T09:04:50;95265.13;;;11.08;59.41
51829;BME280;37881;48.024;8.774;2024-01-30T09:07:17;95263.22;;;11.23;62.60
51829;BME280;37881;48.024;8.774;2024-01-30T09:09:44;95265.41;;;11.94;58.86
51829;BME280;37881;48.024;8.774;2024-01-30T09:12:11;95264.13;;;11.55;57.64
51829;BME280;37881;48.024;8.774;2024-01-30T09:14:39;95259.13;;;12.29;58.52
51829;BME280;37881;48.024;8.774;2024-01-30T09:17:07;95262.19;;;12.89;54.36
51829;BME280;37881;48.024;8.774;2024-01-30T09:19:34;95261.69;;;13.26;55.03
51829;BME280;37881;48.024;8.774;2024-01-30T09:22:02;95260.19;;;11.49;56.28
51829;BME280;37881;48.024;8.774;2024-01-30T09:24:29;95268.25;;;11.03;60.18
51829;BME280;37881;48.024;8.774;2024-01-30T09:26:56;95264.41;;;10.45;63.62
51829;BME280;37881;48.024;8.774;2024-01-30T09:29:23;95259.34;;;10.06;69.39
51829;BME280;37881;48.024;8.774;2024-01-30T09:31:49;95264.69;;;10.95;69.09
51829;BME280;37881;48.024;8.774;2024-01-30T09:34:16;95256.66;;;11.56;63.76
51829;BME280;37881;48.024;8.774;2024-01-30T09:36:43;95255.59;;;12.43;59.82
51829;BME280;37881;48.024;8.774;2024-01-30T09:39:10;95264.06;;;13.31;57.73
51829;BME280;37881;48.024;8.774;2024-01-30T09:41:44;95256.63;;;14.89;51.57
51829;BME280;37881;48.024;8.774;2024-01-30T09:44:13;95259.47;;;15.20;51.21
51829;BME280;37881;48.024;8.774;2024-01-30T09:46:42;95262.69;;;14.76;50.97
51829;BME280;37881;48.024;8.774;2024-01-30T09:49:09;95261.72;;;13.15;53.49
51829;BME280;37881;48.024;8.774;2024-01-30T09:51:37;95268.56;;;12.03;59.62
51829;BME280;37881;48.024;8.774;2024-01-30T09:54:04;95265.13;;;11.04;65.01
51829;BME280;37881;48.024;8.774;2024-01-30T09:56:30;95262.13;;;10.09;74.52
51829;BME280;37881;48.024;8.774;2024-01-30T09:58:57;95272.41;;;9.04;86.17
51829;BME280;37881;48.024;8.774;2024-01-30T10:01:25;95266.81;;;9.27;88.43
51829;BME280;37881;48.024;8.774;2024-01-30T10:03:52;95271.28;;;9.42;89.28
51829;BME280;37881;48.024;8.774;2024-01-30T10:06:20;95265.72;;;9.35;87.41
51829;BME280;37881;48.024;8.774;2024-01-30T10:08:49;95276.53;;;7.87;97.55
51829;BME280;37881;48.024;8.774;2024-01-30T10:11:16;95273.66;;;7.57;100.00
51829;BME280;37881;48.024;8.774;2024-01-30T10:13:43;95271.41;;;8.58;98.69
51829;BME280;37881;48.024;8.774;2024-01-30T10:16:10;95271.50;;;9.26;93.19
51829;BME280;37881;48.024;8.774;2024-01-30T10:18:36;95269.75;;;9.45;90.22
51829;BME280;37881;48.024;8.774;2024-01-30T10:21:03;95261.84;;;9.39;92.00
51829;BME280;37881;48.024;8.774;2024-01-30T10:23:30;95262.31;;;9.45;91.10
51829;BME280;37881;48.024;8.774;2024-01-30T10:26:03;95266.47;;;8.68;98.32
51829;BME280;37881;48.024;8.774;2024-01-30T10:28:30;95259.16;;;7.76;100.00
51829;BME280;37881;48.024;8.774;2024-01-30T10:30:58;95253.63;;;7.95;100.00
51829;BME280;37881;48.024;8.774;2024-01-30T10:33:31;95267.84;;;8.85;100.00
51829;BME280;37881;48.024;8.774;2024-01-30T10:36:03;95256.59;;;9.61;94.95
51829;BME280;37881;48.024;8.774;2024-01-30T10:38:32;95256.56;;;9.98;89.77
51829;BME280;37881;48.024;8.774;2024-01-30T10:41:00;95257.53;;;9.05;95.11
51829;BME280;37881;48.024;8.774;2024-01-30T10:43:32;95261.75;;;9.70;92.13
51829;BME280;37881;48.024;8.774;2024-01-30T10:48:36;95246.94;;;12.23;77.11
51829;BME280;37881;48.024;8.774;2024-01-30T10:51:04;95245.69;;;12.85;73.55
51829;BME280;37881;48.024;8.774;2024-01-30T10:53:32;95233.88;;;15.46;63.08
51829;BME280;37881;48.024;8.774;2024-01-30T10:55:59;95236.16;;;16.60;56.03
51829;BME280;37881;48.024;8.774;2024-01-30T10:58:27;95232.22;;;16.57;53.71
51829;BME280;37881;48.024;8.774;2024-01-30T11:00:55;95235.31;;;13.25;62.77
51829;BME280;37881;48.024;8.774;2024-01-30T11:03:23;95231.63;;;12.18;72.02
51829;BME280;37881;48.024;8.774;2024-01-30T11:05:52;95227.16;;;13.81;66.53
51829;BME280;37881;48.024;8.774;2024-01-30T11:08:25;95211.72;;;15.46;60.53
51829;BME280;37881;48.024;8.774;2024-01-30T11:10:56;95215.22;;;13.28;64.87
51829;BME280;37881;48.024;8.774;2024-01-30T11:13:28;95218.16;;;13.70;67.93
51829;BME280;37881;48.024;8.774;2024-01-30T11:16:03;95208.69;;;15.95;61.50
51829;BME280;37881;48.024;8.774;2024-01-30T11:18:31;95204.59;;;15.80;56.25
51829;BME280;37881;48.024;8.774;2024-01-30T11:20:59;95205.22;;;14.12;59.17
51829;BME280;37881;48.024;8.774;2024-01-30T11:23:28;95209.59;;;12.44;63.75
51829;BME280;37881;48.024;8.774;2024-01-30T11:25:56;95199.34;;;11.79;69.26
51829;BME280;37881;48.024;8.774;2024-01-30T11:28:24;95204.09;;;12.22;69.66
51829;BME280;37881;48.024;8.774;2024-01-30T11:30:51;95201.31;;;12.36;67.44
51829;BME280;37881;48.024;8.774;2024-01-30T11:33:30;95197.41;;;12.30;65.60
51829;BME280;37881;48.024;8.774;2024-01-30T11:36:00;95199.41;;;11.94;65.45
51829;BME280;37881;48.024;8.774;2024-01-30T11:38:28;95203.28;;;11.71;66.23
51829;BME280;37881;48.024;8.774;2024-01-30T11:40:55;95196.56;;;11.51;67.56
51829;BME280;37881;48.024;8.774;2024-01-30T11:43:23;95190.25;;;11.25;69.56
51829;BME280;37881;48.024;8.774;2024-01-30T11:45:51;95189.09;;;11.37;68.08
51829;BME280;37881;48.024;8.774;2024-01-30T11:48:18;95189.09;;;11.37;68.23
51829;BME280;37881;48.024;8.774;2024-01-30T11:50:45;95189.53;;;11.57;67.68
51829;BME280;37881;48.024;8.774;2024-01-30T11:53:13;95187.53;;;11.54;68.76
51829;BME280;37881;48.024;8.774;2024-01-30T11:55:39;95187.91;;;11.49;67.66
51829;BME280;37881;48.024;8.774;2024-01-30T11:58:07;95196.19;;;11.85;66.57
51829;BME280;37881;48.024;8.774;2024-01-30T12:00:33;95186.81;;;11.93;65.93
51829;BME280;37881;48.024;8.774;2024-01-30T12:03:01;95188.75;;;12.03;64.90
51829;BME280;37881;48.024;8.774;2024-01-30T12:05:30;95180.50;;;12.10;62.28
51829;BME280;37881;48.024;8.774;2024-01-30T12:07:57;95181.31;;;11.89;60.83
51829;BME280;37881;48.024;8.774;2024-01-30T12:10:28;95181.66;;;12.42;59.32
51829;BME280;37881;48.024;8.774;2024-01-30T12:12:56;95180.50;;;12.32;60.76
51829;BME280;37881;48.024;8.774;2024-01-30T12:15:24;95178.94;;;12.02;61.79
51829;BME280;37881;48.024;8.774;2024-01-30T12:17:51;95176.13;;;12.49;61.15
51829;BME280;37881;48.024;8.774;2024-01-30T12:20:19;95172.66;;;12.12;59.53
51829;BME280;37881;48.024;8.774;2024-01-30T12:22:47;95169.88;;;11.80;61.21
51829;BME280;37881;48.024;8.774;2024-01-30T12:25:16;95170.28;;;12.18;60.36
51829;BME280;37881;48.024;8.774;2024-01-30T12:27:47;95178.91;;;11.77;60.32
51829;BME280;37881;48.024;8.774;2024-01-30T12:30:18;95171.84;;;11.58;61.31
51829;BME280;37881;48.024;8.774;2024-01-30T12:32:49;95167.53;;;11.86;60.09
51829;BME280;37881;48.024;8.774;2024-01-30T12:35:20;95161.22;;;11.42;60.96
51829;BME280;37881;48.024;8.774;2024-01-30T12:37:48;95157.66;;;11.38;61.16
51829;BME280;37881;48.024;8.774;2024-01-30T12:40:16;95152.97;;;11.31;60.96
51829;BME280;37881;48.024;8.774;2024-01-30T12:42:46;95156.13;;;11.58;61.94
51829;BME280;37881;48.024;8.774;2024-01-30T12:45:15;95159.25;;;12.25;59.55
51829;BME280;37881;48.024;8.774;2024-01-30T12:47:42;95165.53;;;12.36;59.14
51829;BME280;37881;48.024;8.774;2024-01-30T12:50:09;95160.44;;;11.70;60.17
51829;BME280;37881;48.024;8.774;2024-01-30T12:52:37;95154.56;;;11.75;61.71
51829;BME280;37881;48.024;8.774;2024-01-30T12:55:04;95152.59;;;11.79;61.33
51829;BME280;37881;48.024;8.774;2024-01-30T12:57:32;95163.97;;;11.71;62.75
51829;BME280;37881;48.024;8.774;2024-01-30T12:59:59;95148.63;;;11.45;64.41